createdAt,value
2016-03-08T00:00:53.281Z,2.93
2016-03-08T00:01:53.206Z,2.97
2016-03-08T00:02:53.177Z,3.04
2016-03-08T00:03:53.071Z,2.97
2016-03-08T00:04:53.027Z,2.97
2016-03-08T00:05:52.998Z,3.03
2016-03-08T00:06:52.892Z,2.93
2016-03-08T00:07:52.847Z,2.97
2016-03-08T00:08:52.834Z,2.89
2016-03-08T00:09:52.711Z,2.85
2016-03-08T00:10:52.652Z,2.92
2016-03-08T00:11:52.639Z,2.77
2016-03-08T00:12:52.549Z,2.71
2016-03-08T00:13:52.472Z,2.72
2016-03-08T00:14:52.413Z,2.83
2016-03-08T00:15:52.384Z,2.82
2016-03-08T00:16:52.294Z,2.74
2016-03-08T00:17:52.296Z,2.86
2016-03-08T00:18:52.235Z,2.85
2016-03-08T00:19:52.145Z,2.75
2016-03-08T00:20:52.085Z,2.72
2016-03-08T00:21:52.010Z,2.75
2016-03-08T00:22:51.982Z,2.69
2016-03-08T00:23:51.906Z,2.69
2016-03-08T00:24:51.830Z,2.74
2016-03-08T00:25:51.771Z,2.68
2016-03-08T00:26:51.695Z,2.71
2016-03-08T00:27:51.728Z,2.72
2016-03-08T00:28:51.638Z,2.8
2016-03-08T00:29:51.515Z,2.9
2016-03-08T00:30:51.487Z,2.83
2016-03-08T00:31:51.396Z,2.86
2016-03-08T00:32:51.352Z,2.89
2016-03-08T00:33:51.308Z,2.72
2016-03-08T00:34:51.248Z,2.82
2016-03-08T00:35:51.172Z,2.74
2016-03-08T00:36:51.113Z,2.71
2016-03-08T00:37:51.053Z,2.74
2016-03-08T00:38:51.040Z,2.65
2016-03-08T00:39:50.933Z,2.62
2016-03-08T00:40:50.858Z,2.69
2016-03-08T00:41:50.813Z,2.62
2016-03-08T00:42:50.769Z,2.72
2016-03-08T00:43:50.710Z,2.74
2016-03-08T00:44:50.618Z,2.71
2016-03-08T00:45:50.590Z,2.82
2016-03-08T00:46:50.514Z,2.74
2016-03-08T00:47:50.455Z,2.83
2016-03-08T00:48:50.379Z,2.8
2016-03-08T00:49:50.335Z,2.86
2016-03-08T00:50:50.260Z,2.87
2016-03-08T00:51:50.231Z,2.8
2016-03-08T00:52:50.156Z,2.77
2016-03-08T00:53:50.065Z,2.69
2016-03-08T00:54:50.036Z,2.69
2016-03-08T00:55:49.960Z,2.72
2016-03-08T00:56:49.901Z,2.71
2016-03-08T00:57:49.840Z,2.71
2016-03-08T00:58:49.798Z,2.71
2016-03-08T00:59:49.753Z,2.72
2016-03-08T01:00:49.678Z,2.75
2016-03-08T01:01:49.617Z,2.87
2016-03-08T01:02:49.558Z,2.83
2016-03-08T01:03:49.482Z,2.79
2016-03-08T01:04:49.281Z,2.86
2016-03-08T01:05:49.378Z,2.82
2016-03-08T01:06:49.319Z,2.77
2016-03-08T01:07:49.258Z,2.75
2016-03-08T01:08:49.183Z,2.67
2016-03-08T01:09:49.132Z,2.64
2016-03-08T01:10:49.044Z,2.75
2016-03-08T01:11:48.972Z,2.61
2016-03-08T01:12:48.916Z,2.57
2016-03-08T01:13:48.827Z,2.61
2016-03-08T01:14:48.776Z,2.53
2016-03-08T01:15:48.712Z,2.6
2016-03-08T01:16:48.633Z,2.67
2016-03-08T01:17:48.412Z,2.65
2016-03-08T01:18:48.488Z,2.67
2016-03-08T01:19:48.473Z,2.68
2016-03-08T01:20:48.381Z,2.69
2016-03-08T01:21:48.335Z,2.71
2016-03-08T01:22:48.274Z,2.75
2016-03-08T01:23:48.242Z,2.77
2016-03-08T01:24:48.136Z,2.69
2016-03-08T01:25:48.153Z,2.75
2016-03-08T01:26:47.999Z,2.72
2016-03-08T01:27:47.953Z,2.68
2016-03-08T01:28:47.909Z,2.61
2016-03-08T01:29:47.832Z,2.64
2016-03-08T01:30:47.773Z,2.56
2016-03-08T01:31:47.712Z,2.57
2016-03-08T01:32:47.652Z,2.6
2016-03-08T01:33:47.592Z,2.54
2016-03-08T01:34:47.548Z,2.62
2016-03-08T01:35:47.471Z,2.62
2016-03-08T01:36:47.413Z,2.54
2016-03-08T01:37:47.352Z,2.72
2016-03-08T01:38:47.323Z,2.67
2016-03-08T01:39:47.233Z,2.68
2016-03-08T01:40:47.173Z,2.74
2016-03-08T01:41:47.113Z,2.72
2016-03-08T01:42:47.100Z,2.65
2016-03-08T01:43:47.009Z,2.64
2016-03-08T01:44:46.950Z,2.61
2016-03-08T01:45:46.968Z,2.65
2016-03-08T01:46:46.830Z,2.5
2016-03-08T01:47:46.754Z,2.65
2016-03-08T01:48:46.678Z,2.65
2016-03-08T01:49:46.651Z,2.64
2016-03-08T01:50:46.622Z,2.67
2016-03-08T01:51:46.530Z,2.69
2016-03-08T01:52:46.471Z,2.65
2016-03-08T01:53:46.395Z,2.68
2016-03-08T01:54:46.335Z,2.77
2016-03-08T01:55:46.292Z,2.74
2016-03-08T01:56:46.232Z,2.72
2016-03-08T01:57:46.171Z,2.75
2016-03-08T01:58:46.113Z,2.71
2016-03-08T01:59:46.052Z,2.67
2016-03-08T02:00:45.993Z,2.65
2016-03-08T02:01:45.932Z,2.64
2016-03-08T02:02:45.888Z,2.74
2016-03-08T02:03:45.813Z,2.71
2016-03-08T02:04:45.754Z,2.75
2016-03-08T02:05:45.678Z,2.8
2016-03-08T02:06:45.634Z,2.82
2016-03-08T02:07:45.557Z,2.77
2016-03-08T02:08:45.499Z,2.75
2016-03-08T02:09:45.438Z,2.72
2016-03-08T02:10:45.394Z,2.64
2016-03-08T02:11:45.304Z,2.65
2016-03-08T02:12:45.259Z,2.65
2016-03-08T02:13:45.231Z,2.56
2016-03-08T02:14:45.156Z,2.54
2016-03-08T02:15:45.079Z,2.54
2016-03-08T02:16:45.036Z,2.5
2016-03-08T02:17:44.960Z,2.6
2016-03-08T02:18:44.884Z,2.49
2016-03-08T02:19:44.840Z,2.53
2016-03-08T02:20:44.780Z,2.61
2016-03-08T02:21:44.752Z,2.51
2016-03-08T02:22:44.677Z,2.5
2016-03-08T02:23:44.617Z,2.62
2016-03-08T02:24:44.541Z,2.61
2016-03-08T02:25:44.466Z,2.68
2016-03-08T02:26:44.438Z,2.65
2016-03-08T02:27:44.361Z,2.64
2016-03-08T02:28:44.302Z,2.65
2016-03-08T02:29:44.226Z,2.62
2016-03-08T02:30:44.183Z,2.56
2016-03-08T02:31:44.138Z,2.54
2016-03-08T02:32:44.063Z,2.46
2016-03-08T02:33:44.003Z,2.46
2016-03-08T02:34:43.943Z,2.47
2016-03-08T02:35:43.883Z,2.64
2016-03-08T02:36:43.808Z,2.62
2016-03-08T02:37:43.811Z,2.54
2016-03-08T02:38:43.704Z,2.65
2016-03-08T02:39:43.643Z,2.68
2016-03-08T02:40:46.601Z,2.61
2016-03-08T02:41:43.524Z,2.68
2016-03-08T02:42:43.465Z,2.71
2016-03-08T02:43:43.437Z,2.65
2016-03-08T02:44:43.345Z,2.69
2016-03-08T02:45:43.269Z,2.6
2016-03-08T02:46:43.242Z,2.62
2016-03-08T02:47:43.150Z,2.67
2016-03-08T02:48:43.122Z,2.65
2016-03-08T02:49:43.062Z,2.74
2016-03-08T02:50:43.158Z,2.64
2016-03-08T02:51:42.911Z,2.69
2016-03-08T02:52:42.898Z,2.71
2016-03-08T02:53:42.806Z,2.77
2016-03-08T02:54:42.731Z,2.67
2016-03-08T02:55:42.686Z,2.68
2016-03-08T02:56:42.612Z,2.53
2016-03-08T02:57:42.552Z,2.5
2016-03-08T02:58:42.507Z,2.56
2016-03-08T02:59:42.447Z,2.56
2016-03-08T03:00:42.404Z,2.56
2016-03-08T03:01:42.344Z,2.49
2016-03-08T03:02:42.253Z,2.47
2016-03-08T03:03:42.271Z,2.51
2016-03-08T03:04:42.133Z,2.57
2016-03-08T03:05:42.152Z,2.57
2016-03-08T03:06:42.014Z,2.57
2016-03-08T03:07:41.969Z,2.56
2016-03-08T03:08:41.909Z,2.5
2016-03-08T03:09:41.850Z,2.61
2016-03-08T03:10:41.790Z,2.6
2016-03-08T03:11:41.730Z,2.53
2016-03-08T03:12:41.671Z,2.61
2016-03-08T03:13:41.595Z,2.56
2016-03-08T03:14:41.550Z,2.56
2016-03-08T03:15:41.491Z,2.5
2016-03-08T03:16:41.400Z,2.47
2016-03-08T03:17:41.387Z,2.49
2016-03-08T03:18:41.327Z,2.42
2016-03-08T03:19:41.236Z,2.49
2016-03-08T03:20:41.192Z,2.42
2016-03-08T03:21:41.132Z,2.49
2016-03-08T03:22:41.089Z,2.43
2016-03-08T03:23:40.997Z,2.36
2016-03-08T03:24:40.921Z,2.42
2016-03-08T03:25:40.893Z,2.42
2016-03-08T03:26:40.833Z,2.47
2016-03-08T03:27:40.758Z,2.39
2016-03-08T03:28:40.697Z,2.51
2016-03-08T03:29:40.669Z,2.44
2016-03-08T03:30:40.594Z,2.43
2016-03-08T03:31:40.519Z,2.39
2016-03-08T03:32:40.459Z,2.46
2016-03-08T03:33:40.399Z,2.47
2016-03-08T03:34:40.323Z,2.49
2016-03-08T03:35:40.311Z,2.46
2016-03-08T03:36:40.219Z,2.51
2016-03-08T03:37:40.190Z,2.36
2016-03-08T03:38:40.084Z,2.39
2016-03-08T03:39:40.055Z,2.33
2016-03-08T03:40:39.964Z,2.38
2016-03-08T03:41:39.952Z,2.38
2016-03-08T03:42:39.860Z,2.43
2016-03-08T03:43:39.816Z,2.42
2016-03-08T03:44:39.725Z,2.44
2016-03-08T03:45:39.696Z,2.44
2016-03-08T03:46:39.621Z,2.44
2016-03-08T03:47:39.436Z,2.51
2016-03-08T03:48:39.486Z,2.61
2016-03-08T03:49:39.457Z,2.43
2016-03-08T03:50:39.397Z,2.46
2016-03-08T03:51:39.307Z,2.5
2016-03-08T03:52:39.247Z,2.54
2016-03-08T03:53:39.203Z,2.54
2016-03-08T03:54:39.143Z,2.49
2016-03-08T03:55:39.083Z,2.53
2016-03-08T03:56:39.023Z,2.46
2016-03-08T03:57:38.947Z,2.47
2016-03-08T03:58:38.903Z,2.44
2016-03-08T03:59:38.844Z,2.44
2016-03-08T04:00:38.783Z,2.46
2016-03-08T04:01:38.709Z,2.44
2016-03-08T04:02:38.680Z,2.47
2016-03-08T04:03:38.604Z,2.49
2016-03-08T04:04:38.529Z,2.57
2016-03-08T04:05:38.485Z,2.46
2016-03-08T04:06:38.435Z,2.49
2016-03-08T04:07:38.375Z,2.46
2016-03-08T04:08:38.299Z,2.57
2016-03-08T04:09:38.224Z,2.56
2016-03-08T04:10:38.179Z,2.56
2016-03-08T04:11:38.120Z,2.54
2016-03-08T04:12:38.076Z,2.61
2016-03-08T04:13:38.000Z,2.62
2016-03-08T04:14:37.926Z,2.64
2016-03-08T04:15:37.881Z,2.61
2016-03-08T04:16:37.821Z,2.49
2016-03-08T04:17:37.777Z,2.57
2016-03-08T04:18:37.701Z,2.61
2016-03-08T04:19:37.641Z,2.53
2016-03-08T04:20:37.581Z,2.57
2016-03-08T04:21:37.521Z,2.61
2016-03-08T04:22:37.446Z,2.57
2016-03-08T04:23:37.383Z,2.5
2016-03-08T04:24:37.339Z,2.61
2016-03-08T04:25:37.280Z,2.49
2016-03-08T04:26:37.205Z,2.53
2016-03-08T04:27:37.160Z,2.56
2016-03-08T04:28:37.116Z,2.56
2016-03-08T04:29:37.025Z,2.53
2016-03-08T04:30:36.965Z,2.56
2016-03-08T04:31:36.921Z,2.49
2016-03-08T04:32:36.860Z,2.6
2016-03-08T04:33:36.802Z,2.51
2016-03-08T04:34:36.757Z,2.44
2016-03-08T04:35:36.666Z,2.51
2016-03-08T04:36:36.607Z,2.47
2016-03-08T04:37:36.546Z,2.42
2016-03-08T04:38:36.518Z,2.53
2016-03-08T04:39:36.443Z,2.44
2016-03-08T04:40:36.382Z,2.6
2016-03-08T04:41:36.339Z,2.61
2016-03-08T04:42:36.247Z,2.61
2016-03-08T04:43:36.204Z,2.49
2016-03-08T04:44:36.128Z,2.53
2016-03-08T04:45:36.068Z,2.43
2016-03-08T04:46:36.040Z,2.47
2016-03-08T04:47:35.948Z,2.49
2016-03-08T04:48:35.889Z,2.47
2016-03-08T04:49:35.845Z,2.49
2016-03-08T04:50:35.785Z,2.42
2016-03-08T04:51:35.709Z,2.42
2016-03-08T04:52:35.649Z,2.42
2016-03-08T04:53:35.605Z,2.46
2016-03-08T04:54:35.545Z,2.43
2016-03-08T04:55:35.485Z,2.42
2016-03-08T04:56:35.442Z,2.42
2016-03-08T04:57:35.350Z,2.39
2016-03-08T04:58:35.305Z,2.35
2016-03-08T04:59:35.262Z,2.33
2016-03-08T05:00:35.171Z,2.39
2016-03-08T05:01:35.127Z,2.43
2016-03-08T05:02:35.066Z,2.47
2016-03-08T05:03:34.991Z,2.39
2016-03-08T05:04:35.135Z,2.46
2016-03-08T05:05:34.871Z,2.46
2016-03-08T05:06:34.828Z,2.46
2016-03-08T05:07:34.752Z,2.46
2016-03-08T05:08:34.693Z,2.57
2016-03-08T05:09:34.648Z,2.44
2016-03-08T05:10:34.573Z,2.54
2016-03-08T05:11:34.545Z,2.49
2016-03-08T05:12:34.453Z,2.53
2016-03-08T05:13:34.409Z,2.54
2016-03-08T05:14:34.349Z,2.54
2016-03-08T05:15:34.273Z,2.5
2016-03-08T05:16:34.230Z,2.54
2016-03-08T05:17:34.170Z,2.61
2016-03-08T05:18:34.095Z,2.44
2016-03-08T05:19:34.034Z,2.46
2016-03-08T05:20:33.975Z,2.57
2016-03-08T05:21:33.914Z,2.61
2016-03-08T05:22:33.855Z,2.57
2016-03-08T05:23:33.810Z,2.61
2016-03-08T05:24:33.736Z,2.5
2016-03-08T05:25:33.675Z,2.62
2016-03-08T05:26:33.631Z,2.6
2016-03-08T05:27:33.572Z,2.65
2016-03-08T05:28:33.496Z,2.67
2016-03-08T05:29:33.421Z,2.67
2016-03-08T05:30:33.376Z,2.64
2016-03-08T05:31:33.333Z,2.68
2016-03-08T05:32:33.241Z,2.68
2016-03-08T05:33:33.196Z,2.68
2016-03-08T05:34:33.068Z,2.72
2016-03-08T05:35:33.099Z,2.68
2016-03-08T05:36:32.992Z,2.68
2016-03-08T05:37:33.132Z,2.72
2016-03-08T05:38:33.563Z,2.65
2016-03-08T05:39:32.815Z,2.67
2016-03-08T05:40:32.770Z,2.62
2016-03-08T05:41:32.726Z,2.69
2016-03-08T05:42:32.634Z,2.69
2016-03-08T05:43:32.576Z,2.77
2016-03-08T05:44:32.531Z,2.67
2016-03-08T05:45:32.456Z,2.71
2016-03-08T05:46:32.396Z,2.62
2016-03-08T05:47:32.367Z,2.65
2016-03-08T05:48:32.292Z,2.62
2016-03-08T05:49:32.239Z,2.69
2016-03-08T05:50:32.149Z,2.65
2016-03-08T05:51:32.119Z,2.65
2016-03-08T05:52:32.044Z,2.77
2016-03-08T05:53:31.985Z,2.71
2016-03-08T05:54:31.924Z,2.72
2016-03-08T05:55:31.880Z,2.74
2016-03-08T05:56:31.821Z,2.72
2016-03-08T05:57:31.745Z,2.68
2016-03-08T05:58:31.701Z,2.85
2016-03-08T05:59:31.626Z,2.8
2016-03-08T06:00:31.581Z,2.85
2016-03-08T06:01:31.506Z,2.8
2016-03-08T06:02:31.445Z,2.86
2016-03-08T06:03:31.387Z,2.83
2016-03-08T06:04:31.342Z,2.83
2016-03-08T06:05:31.251Z,2.79
2016-03-08T06:06:31.211Z,2.89
2016-03-08T06:07:31.137Z,2.82
2016-03-08T06:08:31.076Z,2.87
2016-03-08T06:09:31.032Z,2.89
2016-03-08T06:10:30.941Z,2.87
2016-03-08T06:11:30.741Z,2.89
2016-03-08T06:12:30.853Z,2.86
2016-03-08T06:13:30.808Z,2.93
2016-03-08T06:14:30.717Z,2.98
2016-03-08T06:15:30.674Z,2.89
2016-03-08T06:16:30.629Z,2.9
2016-03-08T06:17:30.539Z,2.89
2016-03-08T06:18:30.478Z,2.97
2016-03-08T06:19:30.435Z,2.86
2016-03-08T06:20:30.374Z,2.92
2016-03-08T06:21:30.299Z,2.92
2016-03-08T06:22:30.255Z,2.97
2016-03-08T06:23:30.179Z,2.89
2016-03-08T06:24:30.119Z,2.9
2016-03-08T06:25:30.076Z,2.87
2016-03-08T06:26:30.000Z,2.85
2016-03-08T06:27:29.940Z,2.9
2016-03-08T06:28:29.880Z,2.92
2016-03-08T06:29:29.836Z,2.92
2016-03-08T06:30:29.760Z,2.93
2016-03-08T06:31:29.700Z,2.9
2016-03-08T06:32:29.641Z,2.95
2016-03-08T06:33:29.612Z,2.9
2016-03-08T06:34:29.521Z,2.92
2016-03-08T06:35:29.461Z,2.97
2016-03-08T06:36:29.417Z,2.97
2016-03-08T06:37:29.342Z,2.98
2016-03-08T06:38:29.281Z,2.97
2016-03-08T06:39:29.254Z,2.95
2016-03-08T06:40:29.162Z,2.92
2016-03-08T06:41:29.133Z,2.97
2016-03-08T06:42:29.089Z,3
2016-03-08T06:43:29.045Z,2.97
2016-03-08T06:44:28.939Z,2.93
2016-03-08T06:45:28.910Z,3
2016-03-08T06:46:28.882Z,3.04
2016-03-08T06:47:28.775Z,3.04
2016-03-08T06:48:28.683Z,3.07
2016-03-08T06:49:28.656Z,3.07
2016-03-08T06:50:28.580Z,3.04
2016-03-08T06:51:28.505Z,3.01
2016-03-08T06:52:28.476Z,3.08
2016-03-08T06:53:28.401Z,3.07
2016-03-08T06:54:28.216Z,3.07
2016-03-08T06:55:28.327Z,3.04
2016-03-08T06:56:28.252Z,3.07
2016-03-08T06:57:28.146Z,3.04
2016-03-08T06:58:28.118Z,3
2016-03-08T06:59:28.026Z,3.05
2016-03-08T07:00:27.966Z,3.1
2016-03-08T07:01:27.954Z,3.16
2016-03-08T07:02:27.862Z,3.1
2016-03-08T07:03:27.802Z,3.07
2016-03-08T07:04:27.759Z,3.18
2016-03-08T07:05:27.714Z,3.07
2016-03-08T07:06:27.622Z,3.16
2016-03-08T07:07:27.563Z,3.13
2016-03-08T07:08:27.503Z,3.05
2016-03-08T07:09:27.444Z,3.18
2016-03-08T07:10:27.243Z,3.26
2016-03-08T07:11:27.371Z,3.21
2016-03-08T07:12:27.264Z,3.23
2016-03-08T07:13:27.219Z,3.18
2016-03-08T07:14:27.160Z,3.23
2016-03-08T07:15:27.100Z,3.25
2016-03-08T07:16:27.025Z,3.28
2016-03-08T07:17:27.027Z,3.25
2016-03-08T07:18:26.952Z,3.21
2016-03-08T07:19:26.877Z,3.19
2016-03-08T07:20:26.816Z,3.34
2016-03-08T07:21:26.742Z,3.37
2016-03-08T07:22:26.650Z,3.34
2016-03-08T07:23:26.622Z,3.4
2016-03-08T07:24:26.562Z,3.37
2016-03-08T07:25:26.487Z,3.4
2016-03-08T07:26:26.458Z,3.48
2016-03-08T07:27:26.367Z,3.4
2016-03-08T07:28:26.323Z,3.47
2016-03-08T07:29:26.279Z,3.47
2016-03-08T07:30:26.218Z,3.55
2016-03-08T07:31:26.143Z,3.48
2016-03-08T07:32:26.099Z,3.56
2016-03-08T07:33:26.040Z,3.55
2016-03-08T07:34:25.948Z,3.55
2016-03-08T07:35:25.889Z,3.59
2016-03-08T07:36:25.860Z,3.59
2016-03-08T07:37:25.800Z,3.66
2016-03-08T07:38:25.724Z,3.63
2016-03-08T07:39:25.695Z,3.69
2016-03-08T07:40:25.605Z,3.69
2016-03-08T07:41:25.576Z,3.69
2016-03-08T07:42:25.501Z,3.65
2016-03-08T07:43:25.457Z,3.78
2016-03-08T07:44:25.413Z,3.6
2016-03-08T07:45:25.305Z,3.62
2016-03-08T07:46:25.278Z,3.78
2016-03-08T07:47:25.202Z,3.78
2016-03-08T07:48:25.142Z,3.77
2016-03-08T07:49:25.129Z,3.83
2016-03-08T07:50:25.038Z,3.81
2016-03-08T07:51:24.963Z,3.78
2016-03-08T07:52:24.902Z,3.8
2016-03-08T07:53:24.859Z,3.84
2016-03-08T07:54:24.799Z,3.76
2016-03-08T07:55:24.739Z,3.83
2016-03-08T07:56:24.679Z,3.87
2016-03-08T07:57:24.635Z,3.86
2016-03-08T07:58:24.544Z,3.98
2016-03-08T07:59:24.513Z,3.98
2016-03-08T08:00:24.469Z,4.02
2016-03-08T08:01:24.379Z,4.02
2016-03-08T08:02:24.318Z,4.04
2016-03-08T08:03:24.243Z,3.87
2016-03-08T08:04:24.262Z,3.94
2016-03-08T08:05:24.139Z,3.98
2016-03-08T08:06:24.079Z,4.05
2016-03-08T08:07:24.035Z,4.16
2016-03-08T08:08:23.991Z,4.14
2016-03-08T08:09:23.978Z,4.06
2016-03-08T08:10:23.871Z,4.04
2016-03-08T08:11:23.796Z,4.14
2016-03-08T08:12:23.720Z,4.14
2016-03-08T08:13:23.675Z,4.22
2016-03-08T08:14:23.601Z,4.2
2016-03-08T08:15:23.572Z,4.26
2016-03-08T08:16:23.497Z,4.19
2016-03-08T08:17:23.453Z,4.35
2016-03-08T08:18:23.377Z,4.28
2016-03-08T08:19:23.333Z,4.24
2016-03-08T08:20:23.257Z,4.19
2016-03-08T08:21:23.198Z,4.38
2016-03-08T08:22:23.169Z,4.37
2016-03-08T08:23:23.077Z,4.24
2016-03-08T08:24:23.033Z,4.37
2016-03-08T08:25:22.974Z,4.4
2016-03-08T08:26:22.164Z,4.4
2016-03-08T08:27:22.886Z,4.5
2016-03-08T08:28:22.794Z,4.38
2016-03-08T08:29:22.735Z,4.42
2016-03-08T08:30:22.675Z,4.45
2016-03-08T08:31:22.630Z,4.52
2016-03-08T08:32:22.555Z,4.49
2016-03-08T08:33:22.511Z,4.55
2016-03-08T08:34:22.420Z,4.45
2016-03-08T08:35:22.391Z,4.52
2016-03-08T08:36:22.332Z,4.35
2016-03-08T08:37:22.271Z,4.55
2016-03-08T08:38:22.212Z,4.48
2016-03-08T08:39:22.152Z,4.56
2016-03-08T08:40:22.077Z,4.62
2016-03-08T08:41:22.033Z,4.6
2016-03-08T08:42:21.973Z,4.66
2016-03-08T08:43:21.913Z,4.6
2016-03-08T08:44:21.869Z,4.66
2016-03-08T08:45:21.793Z,4.6
2016-03-08T08:46:21.733Z,4.66
2016-03-08T08:47:21.673Z,4.62
2016-03-08T08:48:21.630Z,4.75
2016-03-08T08:49:21.569Z,4.73
2016-03-08T08:50:21.510Z,4.62
2016-03-08T08:51:21.450Z,4.71
2016-03-08T08:52:21.391Z,4.71
2016-03-08T08:53:21.330Z,4.7
2016-03-08T08:54:21.271Z,4.77
2016-03-08T08:55:21.227Z,4.78
2016-03-08T08:56:21.167Z,4.77
2016-03-08T08:57:21.138Z,4.74
2016-03-08T08:58:21.047Z,4.87
2016-03-08T08:59:20.988Z,4.82
2016-03-08T09:00:20.912Z,4.75
2016-03-08T09:01:20.868Z,4.8
2016-03-08T09:02:20.808Z,4.78
2016-03-08T09:03:20.779Z,4.71
2016-03-08T09:04:20.688Z,4.84
2016-03-08T09:05:20.659Z,4.92
2016-03-08T09:06:20.585Z,4.82
2016-03-08T09:07:20.556Z,4.89
2016-03-08T09:08:20.449Z,4.92
2016-03-08T09:09:20.390Z,4.84
2016-03-08T09:10:20.392Z,5
2016-03-08T09:11:20.285Z,5
2016-03-08T09:12:20.226Z,5
2016-03-08T09:13:20.165Z,4.9
2016-03-08T09:14:20.128Z,4.92
2016-03-08T09:15:20.053Z,4.87
2016-03-08T09:16:20.009Z,5
2016-03-08T09:17:19.949Z,4.96
2016-03-08T09:18:19.888Z,4.99
2016-03-08T09:19:19.814Z,5.05
2016-03-08T09:20:19.769Z,4.96
2016-03-08T09:21:19.725Z,5.04
2016-03-08T09:22:19.650Z,5.1
2016-03-08T09:23:19.590Z,5.08
2016-03-08T09:24:19.530Z,5.07
2016-03-08T09:25:19.502Z,5.1
2016-03-08T09:26:19.255Z,5.2
2016-03-08T09:27:19.366Z,5.2
2016-03-08T09:28:19.307Z,5.17
2016-03-08T09:29:19.232Z,5.28
2016-03-08T09:30:19.187Z,5.26
2016-03-08T09:31:19.112Z,5.25
2016-03-08T09:32:19.067Z,5.25
2016-03-08T09:33:19.023Z,5.38
2016-03-08T09:34:18.962Z,5.41
2016-03-08T09:35:18.904Z,5.41
2016-03-08T09:36:18.843Z,5.44
2016-03-08T09:37:18.767Z,5.48
2016-03-08T09:38:18.708Z,5.56
2016-03-08T09:39:18.664Z,5.59
2016-03-08T09:40:18.604Z,5.61
2016-03-08T09:41:18.545Z,5.61
2016-03-08T09:42:18.531Z,5.59
2016-03-08T09:43:18.441Z,5.65
2016-03-08T09:44:18.380Z,5.65
2016-03-08T09:45:18.337Z,5.71
2016-03-08T09:46:18.292Z,5.69
2016-03-08T09:47:18.232Z,5.71
2016-03-08T09:48:18.158Z,5.79
2016-03-08T09:49:18.082Z,5.8
2016-03-08T09:50:18.053Z,5.83
2016-03-08T09:51:17.994Z,5.79
2016-03-08T09:52:17.980Z,5.83
2016-03-08T09:53:17.905Z,5.89
2016-03-08T09:54:17.798Z,5.82
2016-03-08T09:55:17.754Z,5.9
2016-03-08T09:56:17.710Z,5.83
2016-03-08T09:57:17.649Z,5.89
2016-03-08T09:58:17.574Z,5.82
2016-03-08T09:59:17.515Z,5.91
2016-03-08T10:00:17.471Z,5.84
2016-03-08T10:01:17.410Z,5.9
2016-03-08T10:02:17.351Z,5.83
2016-03-08T10:03:17.306Z,5.9
2016-03-08T10:04:17.248Z,5.99
2016-03-08T10:05:17.171Z,5.97
2016-03-08T10:06:17.143Z,5.94
2016-03-08T10:07:17.069Z,5.93
2016-03-08T10:08:17.024Z,6.05
2016-03-08T10:09:16.933Z,6.05
2016-03-08T10:10:16.936Z,6.14
2016-03-08T10:11:16.860Z,6.22
2016-03-08T10:12:16.785Z,6.31
2016-03-08T10:13:16.726Z,6.35
2016-03-08T10:14:16.696Z,6.35
2016-03-08T10:15:16.621Z,6.56
2016-03-08T10:16:16.555Z,6.48
2016-03-08T10:17:16.502Z,6.57
2016-03-08T10:18:16.447Z,6.66
2016-03-08T10:19:16.331Z,6.64
2016-03-08T10:20:16.277Z,6.82
2016-03-08T10:21:16.242Z,6.88
2016-03-08T10:22:16.476Z,7
2016-03-08T10:23:16.100Z,7.05
2016-03-08T10:24:16.067Z,7.13
2016-03-08T10:25:16.004Z,7.07
2016-03-08T10:26:15.911Z,7.17
2016-03-08T10:27:15.881Z,7.25
2016-03-08T10:28:15.805Z,7.31
2016-03-08T10:29:15.745Z,7.31
2016-03-08T10:30:15.699Z,7.31
2016-03-08T10:31:15.654Z,7.29
2016-03-08T10:32:15.593Z,7.35
2016-03-08T10:33:15.533Z,7.38
2016-03-08T10:34:15.457Z,7.36
2016-03-08T10:35:15.460Z,7.4
2016-03-08T10:36:15.368Z,7.32
2016-03-08T10:37:15.308Z,7.29
2016-03-08T10:38:15.264Z,7.29
2016-03-08T10:39:15.187Z,7.35
2016-03-08T10:40:15.143Z,7.29
2016-03-08T10:41:15.083Z,7.28
2016-03-08T10:42:15.039Z,7.48
2016-03-08T10:43:14.963Z,7.58
2016-03-08T10:44:14.919Z,7.83
2016-03-08T10:45:14.844Z,7.98
2016-03-08T10:46:14.815Z,8.09
2016-03-08T10:47:14.741Z,8.24
2016-03-08T10:48:14.711Z,8.26
2016-03-08T10:49:14.651Z,8.3
2016-03-08T10:50:14.655Z,8.31
2016-03-08T10:51:14.516Z,8.42
2016-03-08T10:52:14.487Z,8.26
2016-03-08T10:53:14.413Z,8.23
2016-03-08T10:54:14.415Z,8.31
2016-03-08T10:55:14.309Z,8.27
2016-03-08T10:56:14.265Z,8.44
2016-03-08T10:57:14.204Z,8.55
2016-03-08T10:58:14.128Z,8.61
2016-03-08T10:59:14.085Z,8.89
2016-03-08T11:00:14.040Z,9.02
2016-03-08T11:01:13.964Z,8.99
2016-03-08T11:02:13.921Z,9.04
2016-03-08T11:03:13.845Z,8.85
2016-03-08T11:04:13.801Z,8.92
2016-03-08T11:05:13.789Z,8.97
2016-03-08T11:06:13.728Z,9.22
2016-03-08T11:07:13.653Z,9.22
2016-03-08T11:08:13.578Z,9.46
2016-03-08T11:09:13.549Z,9.51
2016-03-08T11:10:13.474Z,9.68
2016-03-08T11:11:13.414Z,9.69
2016-03-08T11:12:13.369Z,9.58
2016-03-08T11:13:13.295Z,9.56
2016-03-08T11:14:13.266Z,9.46
2016-03-08T11:15:13.174Z,9.43
2016-03-08T11:16:13.147Z,9.29
2016-03-08T11:17:13.102Z,9.32
2016-03-08T11:18:13.041Z,9.22
2016-03-08T11:19:12.998Z,9.14
2016-03-08T11:20:12.938Z,9.18
2016-03-08T11:21:12.863Z,8.97
2016-03-08T11:22:12.802Z,8.99
2016-03-08T11:23:12.759Z,8.79
2016-03-08T11:24:12.698Z,8.87
2016-03-08T11:25:12.654Z,8.92
2016-03-08T11:26:12.595Z,9
2016-03-08T11:27:12.534Z,9
2016-03-08T11:28:12.460Z,8.97
2016-03-08T11:29:12.446Z,8.99
2016-03-08T11:30:12.371Z,9.02
2016-03-08T11:31:12.327Z,9.18
2016-03-08T11:32:12.267Z,9.36
2016-03-08T11:33:12.192Z,9.31
2016-03-08T11:34:12.164Z,9.32
2016-03-08T11:35:12.119Z,9.32
2016-03-08T11:36:12.044Z,9.29
2016-03-08T11:37:11.999Z,8.84
2016-03-08T11:38:11.925Z,8.89
2016-03-08T11:39:11.880Z,9.03
2016-03-08T11:40:11.819Z,9.02
2016-03-08T11:41:11.823Z,8.81
2016-03-08T11:42:11.700Z,8.88
2016-03-08T11:43:11.687Z,8.87
2016-03-08T11:44:11.612Z,8.82
2016-03-08T11:45:11.553Z,8.73
2016-03-08T11:46:11.492Z,8.74
2016-03-08T11:47:11.464Z,8.66
2016-03-08T11:48:11.373Z,8.61
2016-03-08T11:49:11.360Z,8.67
2016-03-08T11:50:11.299Z,8.6
2016-03-08T11:51:11.209Z,8.51
2016-03-08T11:52:11.165Z,8.55
2016-03-08T11:53:11.104Z,8.52
2016-03-08T11:54:11.045Z,8.48
2016-03-08T11:55:11.001Z,8.37
2016-03-08T11:56:10.941Z,8.3
2016-03-08T11:57:10.896Z,8.33
2016-03-08T11:58:10.837Z,8.2
2016-03-08T11:59:10.777Z,8.31
2016-03-08T12:00:10.733Z,8.28
2016-03-08T12:01:10.674Z,8.3
2016-03-08T12:02:10.614Z,8.23
2016-03-08T12:03:10.553Z,8.3
2016-03-08T12:04:10.495Z,8.27
2016-03-08T12:05:10.309Z,8.27
2016-03-08T12:06:10.407Z,8.27
2016-03-08T12:07:10.363Z,8.28
2016-03-08T12:08:10.272Z,8.31
2016-03-08T12:09:10.244Z,8.3
2016-03-08T12:10:10.183Z,8.28
2016-03-08T12:11:10.108Z,8.27
2016-03-08T12:12:10.064Z,8.23
2016-03-08T12:13:10.004Z,8.24
2016-03-08T12:14:09.944Z,8.16
2016-03-08T12:15:09.885Z,8.3
2016-03-08T12:16:09.857Z,8.24
2016-03-08T12:17:09.796Z,8.26
2016-03-08T12:18:09.721Z,8.28
2016-03-08T12:19:09.693Z,8.28
2016-03-08T12:20:09.617Z,8.13
2016-03-08T12:21:09.572Z,8.09
2016-03-08T12:22:09.498Z,8.03
2016-03-08T12:23:09.453Z,8.15
2016-03-08T12:24:09.393Z,8.1
2016-03-08T12:25:09.318Z,8.01
2016-03-08T12:26:09.305Z,8.08
2016-03-08T12:27:09.229Z,8.08
2016-03-08T12:28:09.200Z,8
2016-03-08T12:29:09.110Z,7.9
2016-03-08T12:30:09.081Z,8
2016-03-08T12:31:09.022Z,7.88
2016-03-08T12:32:08.978Z,7.93
2016-03-08T12:33:08.902Z,7.94
2016-03-08T12:34:08.858Z,7.87
2016-03-08T12:35:08.813Z,7.79
2016-03-08T12:36:08.753Z,7.79
2016-03-08T12:37:08.694Z,7.75
2016-03-08T12:38:08.665Z,7.63
2016-03-08T12:39:08.591Z,7.53
2016-03-08T12:40:08.514Z,7.5
2016-03-08T12:41:08.501Z,7.39
2016-03-08T12:42:08.426Z,7.45
2016-03-08T12:43:08.366Z,7.48
2016-03-08T12:44:08.322Z,7.42
2016-03-08T12:45:08.262Z,7.36
2016-03-08T12:46:08.188Z,7.43
2016-03-08T12:47:08.143Z,7.4
2016-03-08T12:48:08.082Z,7.29
2016-03-08T12:49:08.008Z,7.18
2016-03-08T12:50:08.073Z,7.28
2016-03-08T12:51:07.887Z,7.28
2016-03-08T12:52:07.843Z,7.31
2016-03-08T12:53:07.784Z,7.28
2016-03-08T12:54:07.740Z,7.39
2016-03-08T12:55:07.679Z,7.42
2016-03-08T12:56:07.620Z,7.32
2016-03-08T12:57:07.560Z,7.25
2016-03-08T12:58:07.547Z,7.36
2016-03-08T12:59:07.472Z,7.39
2016-03-08T13:00:07.412Z,7.43
2016-03-08T13:01:07.337Z,7.45
2016-03-08T13:02:07.292Z,7.48
2016-03-08T13:03:07.248Z,7.53
2016-03-08T13:04:07.158Z,7.58
2016-03-08T13:05:07.128Z,7.7
2016-03-08T13:06:07.067Z,7.61
2016-03-08T13:07:07.007Z,7.73
2016-03-08T13:08:06.980Z,7.8
2016-03-08T13:09:06.904Z,7.73
2016-03-08T13:10:06.843Z,7.82
2016-03-08T13:11:06.784Z,7.77
2016-03-08T13:12:06.756Z,7.75
2016-03-08T13:13:06.696Z,7.93
2016-03-08T13:14:06.620Z,7.8
2016-03-08T13:15:06.623Z,8.01
2016-03-08T13:16:06.532Z,7.95
2016-03-08T13:17:06.457Z,8.1
2016-03-08T13:18:06.397Z,8.12
2016-03-08T13:19:06.384Z,8.09
2016-03-08T13:20:06.308Z,8.23
2016-03-08T13:21:06.248Z,8.19
2016-03-08T13:22:06.173Z,8.19